sensor_id;sensor_type;location;lat;lon;timestamp;pressure;altitude;pressure_sealevel;temperature;humidity
8051;BME280;4068;42.158;24.732;2023-04-25T00:01:54;98910.25;;;12.64;100.00
8051;BME280;4068;42.158;24.732;2023-04-25T00:04:21;98885.69;;;12.52;100.00
8051;BME280;4068;42.158;24.732;2023-04-25T00:06:47;98908.09;;;12.68;100.00
8051;BME280;4068;42.158;24.732;2023-04-25T00:09:13;98904.63;;;12.67;100.00
8051;BME280;4068;42.158;24.732;2023-04-25T00:11:39;98901.81;;;12.69;100.00
8051;BME280;4068;42.158;24.732;2023-04-25T00:14:05;98894.22;;;12.56;100.00
8051;BME280;4068;42.158;24.732;2023-04-25T00:16:31;98891.78;;;12.45;100.00
8051;BME280;4068;42.158;24.732;2023-04-25T00:18:59;98894.75;;;12.41;100.00
8051;BME280;4068;42.158;24.732;2023-04-25T00:21:24;98898.41;;;12.58;100.00
8051;BME280;4068;42.158;24.732;2023-04-25T00:23:52;98894.22;;;12.56;100.00
8051;BME280;4068;42.158;24.732;2023-04-25T00:26:18;98898.00;;;12.53;100.00
8051;BME280;4068;42.158;24.732;2023-04-25T00:28:43;98889.03;;;12.54;100.00
8051;BME280;4068;42.158;24.732;2023-04-25T00:31:08;98891.41;;;12.57;100.00
8051;BME280;4068;42.158;24.732;2023-04-25T00:33:34;98886.38;;;12.54;100.00
8051;BME280;4068;42.158;24.732;2023-04-25T00:36:00;98874.22;;;12.52;100.00
8051;BME280;4068;42.158;24.732;2023-04-25T00:38:25;98873.53;;;12.50;100.00
8051;BME280;4068;42.158;24.732;2023-04-25T00:40:50;98870.66;;;12.43;100.00
8051;BME280;4068;42.158;24.732;2023-04-25T00:43:16;98864.28;;;12.36;100.00
8051;BME280;4068;42.158;24.732;2023-04-25T00:45:42;98878.47;;;12.45;100.00
8051;BME280;4068;42.158;24.732;2023-04-25T00:48:08;98878.63;;;12.43;100.00
8051;BME280;4068;42.158;24.732;2023-04-25T00:50:34;98865.78;;;12.38;100.00
8051;BME280;4068;42.158;24.732;2023-04-25T00:53:01;98876.72;;;12.35;100.00
8051;BME280;4068;42.158;24.732;2023-04-25T00:55:27;98886.53;;;12.35;100.00
8051;BME280;4068;42.158;24.732;2023-04-25T00:57:52;98890.56;;;12.39;100.00
8051;BME280;4068;42.158;24.732;2023-04-25T01:00:18;98871.84;;;12.31;100.00
8051;BME280;4068;42.158;24.732;2023-04-25T01:02:44;98893.31;;;12.47;100.00
8051;BME280;4068;42.158;24.732;2023-04-25T01:05:10;98885.75;;;12.42;100.00
8051;BME280;4068;42.158;24.732;2023-04-25T01:07:37;98852.56;;;12.29;100.00
8051;BME280;4068;42.158;24.732;2023-04-25T01:10:03;98877.94;;;12.41;100.00
8051;BME280;4068;42.158;24.732;2023-04-25T01:12:29;98869.66;;;12.44;100.00
8051;BME280;4068;42.158;24.732;2023-04-25T01:14:54;98879.94;;;12.57;100.00
8051;BME280;4068;42.158;24.732;2023-04-25T01:17:20;98881.72;;;12.56;100.00
8051;BME280;4068;42.158;24.732;2023-04-25T01:19:46;98891.91;;;12.61;100.00
8051;BME280;4068;42.158;24.732;2023-04-25T01:22:13;98896.72;;;12.57;100.00
8051;BME280;4068;42.158;24.732;2023-04-25T01:24:39;98869.41;;;12.55;100.00
8051;BME280;4068;42.158;24.732;2023-04-25T01:27:06;98894.19;;;12.74;100.00
8051;BME280;4068;42.158;24.732;2023-04-25T01:29:31;98857.28;;;12.53;100.00
8051;BME280;4068;42.158;24.732;2023-04-25T01:31:57;98885.00;;;12.68;100.00
8051;BME280;4068;42.158;24.732;2023-04-25T01:34:24;98881.50;;;12.68;100.00
8051;BME280;4068;42.158;24.732;2023-04-25T01:36:50;98874.50;;;12.67;100.00
8051;BME280;4068;42.158;24.732;2023-04-25T01:39:20;98872.16;;;12.64;100.00
8051;BME280;4068;42.158;24.732;2023-04-25T01:41:46;98875.78;;;12.63;100.00
8051;BME280;4068;42.158;24.732;2023-04-25T01:44:12;98881.28;;;12.61;100.00
8051;BME280;4068;42.158;24.732;2023-04-25T01:46:38;98880.44;;;12.60;100.00
8051;BME280;4068;42.158;24.732;2023-04-25T01:49:04;98877.84;;;12.51;100.00
8051;BME280;4068;42.158;24.732;2023-04-25T01:51:30;98878.00;;;12.49;100.00
8051;BME280;4068;42.158;24.732;2023-04-25T01:53:58;98851.66;;;12.38;100.00
8051;BME280;4068;42.158;24.732;2023-04-25T01:56:23;98840.78;;;12.31;100.00
8051;BME280;4068;42.158;24.732;2023-04-25T01:58:49;98871.63;;;12.42;100.00
8051;BME280;4068;42.158;24.732;2023-04-25T02:01:14;98860.84;;;12.43;100.00
8051;BME280;4068;42.158;24.732;2023-04-25T02:03:40;98866.47;;;12.58;100.00
8051;BME280;4068;42.158;24.732;2023-04-25T02:06:05;98860.47;;;12.56;100.00
8051;BME280;4068;42.158;24.732;2023-04-25T02:08:31;98858.09;;;12.53;100.00
8051;BME280;4068;42.158;24.732;2023-04-25T02:10:57;98863.97;;;12.57;100.00
8051;BME280;4068;42.158;24.732;2023-04-25T02:13:22;98866.31;;;12.60;100.00
8051;BME280;4068;42.158;24.732;2023-04-25T02:15:48;98864.81;;;12.57;100.00
8051;BME280;4068;42.158;24.732;2023-04-25T02:18:13;98850.91;;;12.46;100.00
8051;BME280;4068;42.158;24.732;2023-04-25T02:20:41;98856.13;;;12.55;100.00
8051;BME280;4068;42.158;24.732;2023-04-25T02:23:07;98857.22;;;12.45;100.00
8051;BME280;4068;42.158;24.732;2023-04-25T02:25:32;98855.44;;;12.53;100.00
8051;BME280;4068;42.158;24.732;2023-04-25T02:27:57;98861.44;;;12.55;100.00
8051;BME280;4068;42.158;24.732;2023-04-25T02:30:23;98856.00;;;12.57;100.00
8051;BME280;4068;42.158;24.732;2023-04-25T02:32:48;98864.25;;;12.54;100.00
8051;BME280;4068;42.158;24.732;2023-04-25T02:35:14;98866.91;;;12.54;100.00
8051;BME280;4068;42.158;24.732;2023-04-25T02:37:40;98841.56;;;12.41;100.00
8051;BME280;4068;42.158;24.732;2023-04-25T02:40:06;98842.47;;;12.32;100.00
8051;BME280;4068;42.158;24.732;2023-04-25T02:42:32;98855.22;;;12.47;100.00
8051;BME280;4068;42.158;24.732;2023-04-25T02:44:57;98849.38;;;12.43;100.00
8051;BME280;4068;42.158;24.732;2023-04-25T02:47:23;98854.69;;;12.43;100.00
8051;BME280;4068;42.158;24.732;2023-04-25T02:49:48;98826.72;;;12.21;100.00
8051;BME280;4068;42.158;24.732;2023-04-25T02:52:14;98861.06;;;12.32;100.00
8051;BME280;4068;42.158;24.732;2023-04-25T02:54:40;98856.13;;;12.19;100.00
8051;BME280;4068;42.158;24.732;2023-04-25T02:57:06;98863.84;;;12.13;100.00
8051;BME280;4068;42.158;24.732;2023-04-25T02:59:32;98871.06;;;12.02;100.00
8051;BME280;4068;42.158;24.732;2023-04-25T03:01:57;98857.13;;;11.90;100.00
8051;BME280;4068;42.158;24.732;2023-04-25T03:04:23;98863.84;;;11.95;100.00
8051;BME280;4068;42.158;24.732;2023-04-25T03:06:51;98860.09;;;11.87;100.00
8051;BME280;4068;42.158;24.732;2023-04-25T03:09:17;98866.78;;;11.91;100.00
8051;BME280;4068;42.158;24.732;2023-04-25T03:11:44;98858.69;;;11.83;100.00
8051;BME280;4068;42.158;24.732;2023-04-25T03:14:10;98866.63;;;11.93;100.00
8051;BME280;4068;42.158;24.732;2023-04-25T03:16:36;98856.56;;;11.87;100.00
8051;BME280;4068;42.158;24.732;2023-04-25T03:19:02;98863.03;;;12.12;100.00
8051;BME280;4068;42.158;24.732;2023-04-25T03:21:28;98865.16;;;12.26;100.00
8051;BME280;4068;42.158;24.732;2023-04-25T03:23:53;98864.94;;;12.38;100.00
8051;BME280;4068;42.158;24.732;2023-04-25T03:26:18;98878.63;;;12.43;100.00
8051;BME280;4068;42.158;24.732;2023-04-25T03:28:44;98863.97;;;12.39;100.00
8051;BME280;4068;42.158;24.732;2023-04-25T03:31:10;98856.22;;;12.28;100.00
8051;BME280;4068;42.158;24.732;2023-04-25T03:33:35;98861.16;;;12.40;100.00
8051;BME280;4068;42.158;24.732;2023-04-25T03:36:00;98860.91;;;12.34;100.00
8051;BME280;4068;42.158;24.732;2023-04-25T03:38:26;98847.25;;;12.29;100.00
8051;BME280;4068;42.158;24.732;2023-04-25T03:40:51;98842.53;;;12.22;100.00
8051;BME280;4068;42.158;24.732;2023-04-25T03:43:17;98841.78;;;12.30;100.00
8051;BME280;4068;42.158;24.732;2023-04-25T03:45:42;98819.38;;;12.15;100.00
8051;BME280;4068;42.158;24.732;2023-04-25T03:48:08;98820.19;;;12.15;100.00
8051;BME280;4068;42.158;24.732;2023-04-25T03:50:33;98831.75;;;12.24;100.00
8051;BME280;4068;42.158;24.732;2023-04-25T03:52:59;98834.94;;;12.28;100.00
8051;BME280;4068;42.158;24.732;2023-04-25T03:55:24;98822.03;;;12.15;100.00
8051;BME280;4068;42.158;24.732;2023-04-25T03:57:50;98837.38;;;12.21;100.00
8051;BME280;4068;42.158;24.732;2023-04-25T04:00:15;98836.78;;;12.27;100.00
8051;BME280;4068;42.158;24.732;2023-04-25T04:02:41;98818.59;;;12.22;100.00
8051;BME280;4068;42.158;24.732;2023-04-25T04:05:06;98829.88;;;12.34;100.00
8051;BME280;4068;42.158;24.732;2023-04-25T04:07:32;98830.06;;;12.41;100.00
8051;BME280;4068;42.158;24.732;2023-04-25T04:09:58;98822.16;;;12.49;100.00
8051;BME280;4068;42.158;24.732;2023-04-25T04:12:24;98827.88;;;12.54;100.00
8051;BME280;4068;42.158;24.732;2023-04-25T04:14:50;98825.13;;;12.64;100.00
8051;BME280;4068;42.158;24.732;2023-04-25T04:17:15;98799.75;;;12.70;100.00
8051;BME280;4068;42.158;24.732;2023-04-25T04:19:41;98821.84;;;12.97;100.00
8051;BME280;4068;42.158;24.732;2023-04-25T04:22:06;98808.75;;;13.03;100.00
8051;BME280;4068;42.158;24.732;2023-04-25T04:24:32;98841.78;;;13.45;100.00
8051;BME280;4068;42.158;24.732;2023-04-25T04:26:57;98834.88;;;13.60;100.00
8051;BME280;4068;42.158;24.732;2023-04-25T04:29:24;98841.63;;;13.81;100.00
8051;BME280;4068;42.158;24.732;2023-04-25T04:31:50;98848.50;;;14.00;100.00
8051;BME280;4068;42.158;24.732;2023-04-25T04:34:17;98851.19;;;14.08;100.00
8051;BME280;4068;42.158;24.732;2023-04-25T04:36:44;98843.22;;;14.17;100.00
8051;BME280;4068;42.158;24.732;2023-04-25T04:39:11;98849.38;;;14.33;100.00
8051;BME280;4068;42.158;24.732;2023-04-25T04:41:37;98810.41;;;14.32;100.00
8051;BME280;4068;42.158;24.732;2023-04-25T04:44:03;98817.72;;;14.30;100.00
8051;BME280;4068;42.158;24.732;2023-04-25T04:46:28;98843.72;;;14.45;100.00
8051;BME280;4068;42.158;24.732;2023-04-25T04:48:53;98847.72;;;14.41;100.00
8051;BME280;4068;42.158;24.732;2023-04-25T04:51:19;98850.56;;;14.31;100.00
8051;BME280;4068;42.158;24.732;2023-04-25T04:53:46;98858.22;;;14.34;100.00
8051;BME280;4068;42.158;24.732;2023-04-25T04:56:11;98860.91;;;14.42;100.00
8051;BME280;4068;42.158;24.732;2023-04-25T04:58:37;98852.44;;;14.55;100.00
8051;BME280;4068;42.158;24.732;2023-04-25T05:01:02;98838.56;;;14.35;100.00
8051;BME280;4068;42.158;24.732;2023-04-25T05:03:28;98858.38;;;14.41;100.00
8051;BME280;4068;42.158;24.732;2023-04-25T05:05:53;98863.09;;;14.55;100.00
8051;BME280;4068;42.158;24.732;2023-04-25T05:08:19;98856.09;;;14.54;100.00
8051;BME280;4068;42.158;24.732;2023-04-25T05:10:44;98856.75;;;14.40;100.00
8051;BME280;4068;42.158;24.732;2023-04-25T05:13:10;98860.09;;;14.58;100.00
8051;BME280;4068;42.158;24.732;2023-04-25T05:15:35;98846.91;;;14.57;100.00
8051;BME280;4068;42.158;24.732;2023-04-25T05:18:02;98846.78;;;14.75;100.00
8051;BME280;4068;42.158;24.732;2023-04-25T05:20:27;98867.63;;;15.04;100.00
8051;BME280;4068;42.158;24.732;2023-04-25T05:22:53;98843.75;;;15.11;100.00
8051;BME280;4068;42.158;24.732;2023-04-25T05:25:18;98861.84;;;15.40;100.00
8051;BME280;4068;42.158;24.732;2023-04-25T05:27:44;98843.16;;;15.40;100.00
8051;BME280;4068;42.158;24.732;2023-04-25T05:30:09;98873.66;;;15.62;100.00
8051;BME280;4068;42.158;24.732;2023-04-25T05:32:35;98874.63;;;15.69;100.00
8051;BME280;4068;42.158;24.732;2023-04-25T05:35:01;98847.94;;;15.61;100.00
8051;BME280;4068;42.158;24.732;2023-04-25T05:37:26;98882.78;;;15.84;100.00
8051;BME280;4068;42.158;24.732;2023-04-25T05:39:52;98874.66;;;15.61;100.00
8051;BME280;4068;42.158;24.732;2023-04-25T05:42:18;98867.28;;;15.63;100.00
8051;BME280;4068;42.158;24.732;2023-04-25T05:44:44;98865.91;;;15.76;100.00
8051;BME280;4068;42.158;24.732;2023-04-25T05:47:09;98867.41;;;15.86;100.00
8051;BME280;4068;42.158;24.732;2023-04-25T05:49:35;98843.00;;;15.90;100.00
8051;BME280;4068;42.158;24.732;2023-04-25T05:52:01;98877.00;;;16.35;100.00
8051;BME280;4068;42.158;24.732;2023-04-25T05:54:26;98880.72;;;16.58;100.00
8051;BME280;4068;42.158;24.732;2023-04-25T05:56:51;98886.53;;;16.61;100.00
8051;BME280;4068;42.158;24.732;2023-04-25T05:59:17;98882.47;;;16.65;100.00
8051;BME280;4068;42.158;24.732;2023-04-25T06:01:42;98885.03;;;16.82;100.00
8051;BME280;4068;42.158;24.732;2023-04-25T06:04:08;98864.44;;;16.82;100.00
8051;BME280;4068;42.158;24.732;2023-04-25T06:06:33;98880.69;;;17.04;100.00
8051;BME280;4068;42.158;24.732;2023-04-25T06:08:58;98875.75;;;17.31;100.00
8051;BME280;4068;42.158;24.732;2023-04-25T06:11:24;98867.16;;;17.50;100.00
8051;BME280;4068;42.158;24.732;2023-04-25T06:13:49;98872.88;;;17.47;100.00
8051;BME280;4068;42.158;24.732;2023-04-25T06:16:15;98869.25;;;17.70;100.00
8051;BME280;4068;42.158;24.732;2023-04-25T06:18:40;98861.78;;;17.65;100.00
8051;BME280;4068;42.158;24.732;2023-04-25T06:21:06;98860.69;;;17.45;100.00
8051;BME280;4068;42.158;24.732;2023-04-25T06:23:31;98836.19;;;17.48;100.00
8051;BME280;4068;42.158;24.732;2023-04-25T06:25:57;98858.28;;;17.65;100.00
8051;BME280;4068;42.158;24.732;2023-04-25T06:28:22;98849.97;;;17.15;100.00
8051;BME280;4068;42.158;24.732;2023-04-25T06:30:49;98822.81;;;17.18;100.00
8051;BME280;4068;42.158;24.732;2023-04-25T06:33:15;98847.50;;;17.43;100.00
8051;BME280;4068;42.158;24.732;2023-04-25T06:35:40;98843.41;;;17.32;100.00
8051;BME280;4068;42.158;24.732;2023-04-25T06:38:06;98835.03;;;16.97;100.00
8051;BME280;4068;42.158;24.732;2023-04-25T06:40:31;98845.22;;;16.79;100.00
8051;BME280;4068;42.158;24.732;2023-04-25T06:42:57;98845.59;;;16.76;100.00
8051;BME280;4068;42.158;24.732;2023-04-25T06:45:22;98826.75;;;16.69;100.00
8051;BME280;4068;42.158;24.732;2023-04-25T06:47:47;98838.38;;;16.99;100.00
8051;BME280;4068;42.158;24.732;2023-04-25T06:50:13;98846.34;;;17.22;100.00
8051;BME280;4068;42.158;24.732;2023-04-25T06:52:38;98842.78;;;17.30;100.00
8051;BME280;4068;42.158;24.732;2023-04-25T06:55:04;98838.97;;;17.39;100.00
8051;BME280;4068;42.158;24.732;2023-04-25T06:57:30;98852.78;;;17.88;100.00
8051;BME280;4068;42.158;24.732;2023-04-25T06:59:56;98824.13;;;18.03;100.00
8051;BME280;4068;42.158;24.732;2023-04-25T07:02:21;98849.81;;;18.13;100.00
8051;BME280;4068;42.158;24.732;2023-04-25T07:04:47;98826.13;;;18.16;100.00
8051;BME280;4068;42.158;24.732;2023-04-25T07:07:13;98858.28;;;18.53;100.00
8051;BME280;4068;42.158;24.732;2023-04-25T07:09:38;98853.31;;;18.93;99.18
8051;BME280;4068;42.158;24.732;2023-04-25T07:12:04;98853.88;;;19.17;98.21
8051;BME280;4068;42.158;24.732;2023-04-25T07:14:30;98840.88;;;19.55;95.88
8051;BME280;4068;42.158;24.732;2023-04-25T07:16:55;98851.75;;;19.75;94.82
8051;BME280;4068;42.158;24.732;2023-04-25T07:19:22;98856.22;;;20.03;95.14
8051;BME280;4068;42.158;24.732;2023-04-25T07:21:49;98841.16;;;20.22;92.30
8051;BME280;4068;42.158;24.732;2023-04-25T07:24:14;98849.53;;;20.54;89.43
8051;BME280;4068;42.158;24.732;2023-04-25T07:26:40;98851.59;;;20.45;90.05
8051;BME280;4068;42.158;24.732;2023-04-25T07:29:05;98834.19;;;20.48;90.41
8051;BME280;4068;42.158;24.732;2023-04-25T07:31:30;98842.31;;;20.81;89.14
8051;BME280;4068;42.158;24.732;2023-04-25T07:33:56;98843.56;;;21.12;88.06
8051;BME280;4068;42.158;24.732;2023-04-25T07:36:21;98826.31;;;21.20;86.02
8051;BME280;4068;42.158;24.732;2023-04-25T07:38:47;98835.69;;;21.04;86.62
8051;BME280;4068;42.158;24.732;2023-04-25T07:41:12;98825.09;;;21.16;85.90
8051;BME280;4068;42.158;24.732;2023-04-25T07:43:37;98828.03;;;20.81;86.82
8051;BME280;4068;42.158;24.732;2023-04-25T07:46:03;98831.31;;;20.76;86.24
8051;BME280;4068;42.158;24.732;2023-04-25T07:48:29;98823.41;;;20.55;86.12
8051;BME280;4068;42.158;24.732;2023-04-25T07:50:54;98822.31;;;20.15;86.93
8051;BME280;4068;42.158;24.732;2023-04-25T07:53:20;98824.63;;;20.25;88.18
8051;BME280;4068;42.158;24.732;2023-04-25T07:55:45;98814.69;;;20.32;87.60
8051;BME280;4068;42.158;24.732;2023-04-25T07:58:11;98787.78;;;20.32;85.83
8051;BME280;4068;42.158;24.732;2023-04-25T08:00:36;98813.31;;;20.70;85.93
8051;BME280;4068;42.158;24.732;2023-04-25T08:03:02;98802.53;;;20.70;83.28
8051;BME280;4068;42.158;24.732;2023-04-25T08:05:28;98782.22;;;20.67;82.64
8051;BME280;4068;42.158;24.732;2023-04-25T08:07:53;98813.06;;;20.51;83.12
8051;BME280;4068;42.158;24.732;2023-04-25T08:10:19;98813.88;;;20.52;84.33
8051;BME280;4068;42.158;24.732;2023-04-25T08:12:44;98817.19;;;21.28;81.12
8051;BME280;4068;42.158;24.732;2023-04-25T08:15:10;98815.06;;;21.57;80.40
8051;BME280;4068;42.158;24.732;2023-04-25T08:17:36;98813.31;;;21.76;79.79
8051;BME280;4068;42.158;24.732;2023-04-25T08:20:01;98815.66;;;22.11;77.30
8051;BME280;4068;42.158;24.732;2023-04-25T08:22:30;98792.44;;;22.03;76.28
8051;BME280;4068;42.158;24.732;2023-04-25T08:24:55;98813.13;;;22.16;75.50
8051;BME280;4068;42.158;24.732;2023-04-25T08:27:21;98814.22;;;22.08;74.07
8051;BME280;4068;42.158;24.732;2023-04-25T08:29:47;98809.03;;;22.45;72.16
8051;BME280;4068;42.158;24.732;2023-04-25T08:32:12;98805.09;;;22.41;68.05
8051;BME280;4068;42.158;24.732;2023-04-25T08:34:38;98813.75;;;22.50;66.66
8051;BME280;4068;42.158;24.732;2023-04-25T08:37:07;98805.75;;;22.62;65.88
8051;BME280;4068;42.158;24.732;2023-04-25T08:39:33;98800.81;;;22.58;66.42
8051;BME280;4068;42.158;24.732;2023-04-25T08:41:59;98813.50;;;22.58;66.69
8051;BME280;4068;42.158;24.732;2023-04-25T08:44:26;98810.06;;;22.44;68.14
8051;BME280;4068;42.158;24.732;2023-04-25T08:46:52;98811.63;;;22.58;68.68
8051;BME280;4068;42.158;24.732;2023-04-25T08:49:18;98808.16;;;22.77;68.22
8051;BME280;4068;42.158;24.732;2023-04-25T08:51:45;98805.41;;;22.83;68.28
8051;BME280;4068;42.158;24.732;2023-04-25T08:54:16;98807.72;;;22.80;69.83
8051;BME280;4068;42.158;24.732;2023-04-25T08:56:47;98812.84;;;23.13;68.28
8051;BME280;4068;42.158;24.732;2023-04-25T08:59:12;98820.56;;;22.84;68.24
8051;BME280;4068;42.158;24.732;2023-04-25T09:01:38;98812.34;;;22.72;69.15
8051;BME280;4068;42.158;24.732;2023-04-25T09:04:04;98815.16;;;22.59;71.41
8051;BME280;4068;42.158;24.732;2023-04-25T09:06:29;98804.63;;;22.76;71.21
8051;BME280;4068;42.158;24.732;2023-04-25T09:09:02;98791.72;;;22.78;69.07
8051;BME280;4068;42.158;24.732;2023-04-25T09:11:28;98817.69;;;22.79;69.78
8051;BME280;4068;42.158;24.732;2023-04-25T09:21:53;98799.31;;;21.53;78.24
8051;BME280;4068;42.158;24.732;2023-04-25T09:24:33;98785.09;;;21.78;76.98
8051;BME280;4068;42.158;24.732;2023-04-25T09:26:59;98792.09;;;21.86;74.10
8051;BME280;4068;42.158;24.732;2023-04-25T09:29:33;98797.69;;;22.23;74.05
8051;BME280;4068;42.158;24.732;2023-04-25T09:32:18;98793.69;;;22.39;73.93
8051;BME280;4068;42.158;24.732;2023-04-25T09:34:49;98794.28;;;22.91;72.12
8051;BME280;4068;42.158;24.732;2023-04-25T09:37:29;98773.88;;;23.21;69.60
8051;BME280;4068;42.158;24.732;2023-04-25T09:39:57;98766.13;;;23.43;67.97
8051;BME280;4068;42.158;24.732;2023-04-25T09:42:25;98791.84;;;24.32;66.09
8051;BME280;4068;42.158;24.732;2023-04-25T09:44:53;98772.03;;;24.73;63.04
8051;BME280;4068;42.158;24.732;2023-04-25T09:47:19;98775.16;;;24.58;63.16
8051;BME280;4068;42.158;24.732;2023-04-25T09:49:47;98771.63;;;24.46;62.53
8051;BME280;4068;42.158;24.732;2023-04-25T09:52:18;98777.22;;;23.90;65.29
8051;BME280;4068;42.158;24.732;2023-04-25T09:54:48;98758.78;;;23.50;65.85
8051;BME280;4068;42.158;24.732;2023-04-25T09:59:43;98746.78;;;23.58;67.23
8051;BME280;4068;42.158;24.732;2023-04-25T10:02:10;98745.09;;;23.94;66.59
8051;BME280;4068;42.158;24.732;2023-04-25T10:04:37;98728.25;;;23.92;62.43
8051;BME280;4068;42.158;24.732;2023-04-25T10:07:05;98728.88;;;23.75;63.66
8051;BME280;4068;42.158;24.732;2023-04-25T10:09:31;98720.28;;;23.48;64.51
8051;BME280;4068;42.158;24.732;2023-04-25T10:12:00;98709.78;;;23.21;63.38
8051;BME280;4068;42.158;24.732;2023-04-25T10:14:26;98720.50;;;23.09;64.27
8051;BME280;4068;42.158;24.732;2023-04-25T10:16:52;98717.56;;;22.92;64.78
8051;BME280;4068;42.158;24.732;2023-04-25T10:19:19;98710.75;;;22.46;65.85
8051;BME280;4068;42.158;24.732;2023-04-25T10:21:52;98679.47;;;22.06;67.67
8051;BME280;4068;42.158;24.732;2023-04-25T10:24:19;98684.38;;;21.84;68.13
8051;BME280;4068;42.158;24.732;2023-04-25T10:26:46;98686.28;;;21.77;70.42
8051;BME280;4068;42.158;24.732;2023-04-25T10:29:12;98679.69;;;22.05;71.22
8051;BME280;4068;42.158;24.732;2023-04-25T10:31:46;98677.56;;;22.39;70.27
8051;BME280;4068;42.158;24.732;2023-04-25T10:34:19;98664.69;;;22.78;68.43
8051;BME280;4068;42.158;24.732;2023-04-25T10:36:51;98668.44;;;22.96;66.09
8051;BME280;4068;42.158;24.732;2023-04-25T10:39:24;98661.31;;;23.01;62.16
8051;BME280;4068;42.158;24.732;2023-04-25T10:41:53;98651.13;;;22.66;64.99
8051;BME280;4068;42.158;24.732;2023-04-25T10:44:20;98663.38;;;22.44;62.58
8051;BME280;4068;42.158;24.732;2023-04-25T10:46:45;98632.28;;;21.84;64.61
8051;BME280;4068;42.158;24.732;2023-04-25T10:49:28;98642.94;;;22.04;64.99
8051;BME280;4068;42.158;24.732;2023-04-25T10:52:26;98643.81;;;21.98;64.30
8051;BME280;4068;42.158;24.732;2023-04-25T10:54:54;98635.94;;;21.96;62.85
8051;BME280;4068;42.158;24.732;2023-04-25T10:57:47;98639.06;;;21.93;63.46
8051;BME280;4068;42.158;24.732;2023-04-25T11:00:15;98630.91;;;22.00;61.40
8051;BME280;4068;42.158;24.732;2023-04-25T11:02:51;98609.53;;;21.98;59.62
8051;BME280;4068;42.158;24.732;2023-04-25T11:05:23;98629.69;;;21.96;58.12
8051;BME280;4068;42.158;24.732;2023-04-25T11:07:55;98612.50;;;21.65;58.91
8051;BME280;4068;42.158;24.732;2023-04-25T11:10:28;98625.75;;;21.98;60.06
8051;BME280;4068;42.158;24.732;2023-04-25T11:12:54;98609.00;;;22.15;60.28
8051;BME280;4068;42.158;24.732;2023-04-25T11:15:20;98618.22;;;22.26;56.41
8051;BME280;4068;42.158;24.732;2023-04-25T11:17:45;98583.53;;;22.04;56.92
8051;BME280;4068;42.158;24.732;2023-04-25T11:20:12;98606.72;;;22.37;56.32
8051;BME280;4068;42.158;24.732;2023-04-25T11:22:39;98603.91;;;22.25;55.57
8051;BME280;4068;42.158;24.732;2023-04-25T11:25:09;98610.19;;;22.63;55.86
8051;BME280;4068;42.158;24.732;2023-04-25T11:30:17;98602.19;;;23.12;54.38
8051;BME280;4068;42.158;24.732;2023-04-25T11:32:43;98603.72;;;23.19;53.17
8051;BME280;4068;42.158;24.732;2023-04-25T11:35:12;98585.06;;;23.30;52.80
8051;BME280;4068;42.158;24.732;2023-04-25T11:37:42;98582.88;;;22.89;53.76
8051;BME280;4068;42.158;24.732;2023-04-25T11:40:09;98570.41;;;22.51;53.43
8051;BME280;4068;42.158;24.732;2023-04-25T11:42:39;98574.78;;;22.71;53.75
8051;BME280;4068;42.158;24.732;2023-04-25T11:45:08;98574.78;;;22.71;54.36
8051;BME280;4068;42.158;24.732;2023-04-25T11:47:34;98557.16;;;22.99;53.56
8051;BME280;4068;42.158;24.732;2023-04-25T11:50:02;98560.63;;;23.36;54.19
8051;BME280;4068;42.158;24.732;2023-04-25T11:52:42;98567.19;;;23.71;57.08
8051;BME280;4068;42.158;24.732;2023-04-25T11:55:09;98560.47;;;23.85;57.23
8051;BME280;4068;42.158;24.732;2023-04-25T11:57:38;98527.69;;;24.17;55.76
8051;BME280;4068;42.158;24.732;2023-04-25T12:00:08;98544.41;;;23.90;55.45
8051;BME280;4068;42.158;24.732;2023-04-25T12:02:35;98537.34;;;24.01;54.62
8051;BME280;4068;42.158;24.732;2023-04-25T12:05:01;98540.50;;;24.22;56.75
8051;BME280;4068;42.158;24.732;2023-04-25T12:07:29;98523.56;;;24.03;59.44
8051;BME280;4068;42.158;24.732;2023-04-25T12:09:55;98520.03;;;23.90;59.10
8051;BME280;4068;42.158;24.732;2023-04-25T12:12:21;98501.84;;;23.32;59.28
8051;BME280;4068;42.158;24.732;2023-04-25T12:14:47;98513.41;;;23.63;58.93
8051;BME280;4068;42.158;24.732;2023-04-25T12:17:14;98518.63;;;24.00;57.24
8051;BME280;4068;42.158;24.732;2023-04-25T12:19:39;98505.78;;;23.95;54.82
8051;BME280;4068;42.158;24.732;2023-04-25T12:22:22;98518.50;;;24.06;55.71
8051;BME280;4068;42.158;24.732;2023-04-25T12:24:48;98519.56;;;24.05;54.99
8051;BME280;4068;42.158;24.732;2023-04-25T12:27:16;98505.47;;;23.91;55.88
8051;BME280;4068;42.158;24.732;2023-04-25T12:29:54;98521.81;;;23.97;56.53
8051;BME280;4068;42.158;24.732;2023-04-25T12:32:19;98516.16;;;23.98;57.16
8051;BME280;4068;42.158;24.732;2023-04-25T12:34:45;98511.19;;;24.07;56.23
8051;BME280;4068;42.158;24.732;2023-04-25T12:37:11;98504.47;;;23.50;57.34
8051;BME280;4068;42.158;24.732;2023-04-25T12:39:37;98518.69;;;23.81;57.27
8051;BME280;4068;42.158;24.732;2023-04-25T12:42:02;98515.66;;;24.01;56.31
8051;BME280;4068;42.158;24.732;2023-04-25T12:44:28;98504.63;;;24.15;55.70
8051;BME280;4068;42.158;24.732;2023-04-25T12:46:54;98514.94;;;24.29;55.10
8051;BME280;4068;42.158;24.732;2023-04-25T12:49:20;98519.25;;;24.54;55.66
8051;BME280;4068;42.158;24.732;2023-04-25T12:51:45;98524.88;;;24.76;54.38
8051;BME280;4068;42.158;24.732;2023-04-25T12:54:12;98517.84;;;24.63;53.28
8051;BME280;4068;42.158;24.732;2023-04-25T12:56:37;98514.84;;;24.12;53.42
8051;BME280;4068;42.158;24.732;2023-04-25T12:59:02;98506.94;;;23.75;54.21
8051;BME280;4068;42.158;24.732;2023-04-25T13:01:29;98517.88;;;23.81;54.50
8051;BME280;4068;42.158;24.732;2023-04-25T13:03:55;98504.69;;;23.84;53.84
8051;BME280;4068;42.158;24.732;2023-04-25T13:06:21;98492.94;;;23.78;54.08
8051;BME280;4068;42.158;24.732;2023-04-25T13:08:47;98506.38;;;24.09;53.46
8051;BME280;4068;42.158;24.732;2023-04-25T13:11:13;98512.13;;;24.24;52.40
8051;BME280;4068;42.158;24.732;2023-04-25T13:13:40;98500.25;;;23.90;51.96
8051;BME280;4068;42.158;24.732;2023-04-25T13:16:06;98493.34;;;23.28;51.14